createdAt,value
2018-06-03T00:00:09.810Z,3.72
2018-06-03T00:06:04.831Z,3.56
2018-06-03T00:11:59.834Z,3.16
2018-06-03T00:17:54.847Z,3.16
2018-06-03T00:23:49.829Z,4.37
2018-06-03T00:29:44.888Z,4.59
2018-06-03T00:35:39.834Z,4.84
2018-06-03T00:41:34.867Z,4.46
2018-06-03T00:47:29.858Z,4.46
2018-06-03T00:53:24.891Z,4.39
2018-06-03T00:59:19.884Z,4.68
2018-06-03T01:05:14.945Z,5.16
2018-06-03T01:11:09.855Z,4.81
2018-06-03T01:17:04.887Z,5.7
2018-06-03T01:22:59.888Z,4.67
2018-06-03T01:28:54.905Z,4.17
2018-06-03T01:34:49.900Z,3.97
2018-06-03T01:40:44.921Z,3.3
2018-06-03T01:46:39.904Z,3.14
2018-06-03T01:52:34.942Z,3.04
2018-06-03T01:58:29.903Z,3.83
2018-06-03T02:04:24.892Z,3.47
2018-06-03T02:10:19.883Z,4.2
2018-06-03T02:16:14.923Z,4.96
2018-06-03T02:22:09.939Z,3.89
2018-06-03T02:28:04.963Z,3.97
2018-06-03T02:33:59.928Z,3.95
2018-06-03T02:39:54.903Z,3.7
2018-06-03T02:45:50.018Z,4.12
2018-06-03T02:51:44.925Z,4.39
2018-06-03T02:57:39.930Z,4.13
2018-06-03T03:03:34.968Z,4.31
2018-06-03T03:09:29.973Z,3.98
2018-06-03T03:15:24.978Z,4.2
2018-06-03T03:21:19.931Z,4.88
2018-06-03T03:27:14.985Z,4.4
2018-06-03T03:33:09.968Z,3.61
2018-06-03T03:39:04.962Z,4.37
2018-06-03T03:45:00.006Z,4.61
2018-06-03T03:50:55.000Z,4.47
2018-06-03T03:56:49.972Z,4.45
2018-06-03T04:02:44.994Z,4.58
2018-06-03T04:08:39.995Z,4.64
2018-06-03T04:14:34.967Z,4.91
2018-06-03T04:20:30.015Z,5.46
2018-06-03T04:26:24.974Z,5.1
2018-06-03T04:32:20.036Z,4.78
2018-06-03T04:38:14.983Z,4.19
2018-06-03T04:44:10.059Z,4.39
2018-06-03T04:50:05.009Z,4.8
2018-06-03T04:56:00.023Z,4.07
2018-06-03T05:01:55.036Z,4.48
2018-06-03T05:07:50.020Z,4.02
2018-06-03T05:13:45.048Z,4.94
2018-06-03T05:19:40.032Z,6.43
2018-06-03T05:25:35.031Z,6.93
2018-06-03T05:31:30.032Z,7.13
2018-06-03T05:37:25.018Z,4.75
2018-06-03T05:43:20.080Z,5.84
2018-06-03T05:49:15.062Z,7.39
2018-06-03T05:55:10.032Z,6.43
2018-06-03T06:01:05.052Z,5.17
2018-06-03T06:07:00.054Z,4.62
2018-06-03T06:12:55.090Z,4.21
2018-06-03T06:18:50.073Z,4.4
2018-06-03T06:24:45.067Z,5.01
2018-06-03T06:30:40.098Z,5.98
2018-06-03T06:36:35.061Z,6.03
2018-06-03T06:42:30.076Z,8.12
2018-06-03T06:48:25.161Z,6.53
2018-06-03T06:54:20.065Z,7.52
2018-06-03T07:00:15.127Z,7.12
2018-06-03T07:06:10.090Z,7.41
2018-06-03T07:12:05.099Z,7.25
2018-06-03T07:18:00.099Z,8.02
2018-06-03T07:23:55.120Z,6.1
2018-06-03T07:29:50.112Z,6.53
2018-06-03T07:35:45.117Z,6.78
2018-06-03T07:41:40.128Z,5.63
2018-06-03T07:47:35.108Z,6.27
2018-06-03T07:53:30.125Z,6.46
2018-06-03T07:59:25.130Z,6.43
2018-06-03T08:05:20.126Z,7.02
2018-06-03T08:11:15.120Z,6.2
2018-06-03T08:17:10.125Z,5.65
2018-06-03T08:23:05.125Z,6.86
2018-06-03T08:29:00.111Z,6.3
2018-06-03T08:34:55.111Z,6.85
2018-06-03T08:40:50.147Z,5.75
2018-06-03T08:46:45.136Z,6.13
2018-06-03T08:52:40.170Z,6.18
2018-06-03T08:58:35.183Z,5.3
2018-06-03T09:04:30.188Z,5.1
2018-06-03T09:10:25.190Z,7.34
2018-06-03T09:16:20.131Z,5.52
2018-06-03T09:22:15.163Z,7.57
2018-06-03T09:28:10.182Z,4.94
2018-06-03T09:34:05.158Z,5.2
2018-06-03T09:40:00.196Z,4.89
2018-06-03T09:45:55.189Z,4.62
2018-06-03T09:51:50.160Z,4.57
2018-06-03T09:57:45.160Z,4.9
2018-06-03T10:03:40.157Z,5.54
2018-06-03T10:09:35.188Z,4.26
2018-06-03T10:15:30.166Z,4.42
2018-06-03T10:21:25.198Z,3.85
2018-06-03T10:27:20.211Z,6.12
2018-06-03T10:33:15.219Z,5.56
2018-06-03T10:39:10.224Z,4.63
2018-06-03T10:45:05.187Z,2.9
2018-06-03T10:51:00.206Z,5.07
2018-06-03T10:56:55.237Z,4.18
2018-06-03T11:02:50.225Z,3.73
2018-06-03T11:08:45.247Z,2.73
2018-06-03T11:14:40.212Z,2.73
2018-06-03T11:20:35.246Z,2.98
2018-06-03T11:26:30.220Z,1.97
2018-06-03T11:32:25.263Z,1.87
2018-06-03T11:38:20.258Z,3.4
2018-06-03T11:44:15.294Z,3.25
2018-06-03T11:50:10.267Z,1.55
2018-06-03T11:56:05.241Z,1.71
2018-06-03T12:02:00.275Z,3.05
2018-06-03T12:07:55.264Z,1.93
2018-06-03T12:13:50.251Z,2.38
2018-06-03T12:19:45.264Z,1.56
2018-06-03T12:25:40.251Z,1.51
2018-06-03T12:31:35.264Z,3.37
2018-06-03T12:37:30.278Z,2.92
2018-06-03T12:43:25.266Z,3.1
2018-06-03T12:49:20.283Z,2.61
2018-06-03T12:55:15.371Z,2.23
2018-06-03T13:01:10.283Z,2.4
2018-06-03T13:07:05.287Z,2.17
2018-06-03T13:13:00.303Z,2.96
2018-06-03T13:18:55.291Z,3.06
2018-06-03T13:24:50.291Z,2.73
2018-06-03T13:30:45.277Z,2.92
2018-06-03T13:36:40.275Z,3.17
2018-06-03T13:42:35.403Z,2.44
2018-06-03T13:48:30.293Z,4.21
2018-06-03T13:54:25.287Z,2.11
2018-06-03T14:00:20.325Z,2.53
2018-06-03T14:06:15.327Z,3.52
2018-06-03T14:12:10.307Z,4.2
2018-06-03T14:18:05.341Z,2.46
2018-06-03T14:24:00.300Z,2.47
2018-06-03T14:29:55.323Z,3.28
2018-06-03T14:35:50.372Z,2.15
2018-06-03T14:41:45.340Z,3.95
2018-06-03T14:47:40.366Z,2.48
2018-06-03T14:53:35.336Z,3.11
2018-06-03T14:59:30.303Z,2.56
2018-06-03T15:05:25.339Z,2.22
2018-06-03T15:11:20.290Z,4.87
2018-06-03T15:17:15.282Z,3.19
2018-06-03T15:23:10.338Z,2.51
2018-06-03T15:29:05.332Z,2.95
2018-06-03T15:35:00.371Z,2.27
2018-06-03T15:40:55.378Z,5.52
2018-06-03T15:46:50.388Z,2.6
2018-06-03T15:52:45.360Z,2.76
2018-06-03T15:58:40.383Z,3.07
2018-06-03T16:04:35.452Z,1.89
2018-06-03T16:10:30.417Z,2.01
2018-06-03T16:16:25.387Z,5.09
2018-06-03T16:22:20.517Z,2.52
2018-06-03T16:28:15.502Z,2.37
2018-06-03T16:34:10.413Z,2.73
2018-06-03T16:40:05.448Z,3.79
2018-06-03T16:46:00.414Z,4
2018-06-03T16:51:55.418Z,2.28
2018-06-03T16:57:50.419Z,3.69
2018-06-03T17:03:45.455Z,2.82
2018-06-03T17:09:40.444Z,5.59
2018-06-03T17:15:35.443Z,4.93
2018-06-03T17:21:30.413Z,2.89
2018-06-03T17:27:25.425Z,3.51
2018-06-03T17:33:20.449Z,4.83
2018-06-03T17:39:15.483Z,3.44
2018-06-03T17:45:10.474Z,2.77
2018-06-03T17:51:05.467Z,3.3
2018-06-03T17:57:00.441Z,3.26
2018-06-03T18:02:55.456Z,3.19
2018-06-03T18:08:50.439Z,6.26
2018-06-03T18:14:45.480Z,4.6
2018-06-03T18:20:40.468Z,6.41
2018-06-03T18:26:35.521Z,4.93
2018-06-03T18:32:30.547Z,6.06
2018-06-03T18:38:25.499Z,6.56
2018-06-03T18:44:20.483Z,4.35
2018-06-03T18:50:15.474Z,4.92
2018-06-03T18:56:10.473Z,4.7
2018-06-03T19:02:05.465Z,4.78
2018-06-03T19:08:00.508Z,4.66
2018-06-03T19:13:55.533Z,3.75
2018-06-03T19:19:50.513Z,3.7
2018-06-03T19:25:45.474Z,4.34
2018-06-03T19:31:40.538Z,6.95
2018-06-03T19:37:35.493Z,4.26
2018-06-03T19:43:30.495Z,4.08
2018-06-03T19:49:25.554Z,4.82
2018-06-03T19:55:20.530Z,4.25
2018-06-03T20:01:15.526Z,4.29
2018-06-03T20:07:10.506Z,3.63
2018-06-03T20:13:05.585Z,3.58
2018-06-03T20:19:00.547Z,5.24
2018-06-03T20:24:55.533Z,4.12
2018-06-03T20:30:50.552Z,4.04
2018-06-03T20:36:45.534Z,4.42
2018-06-03T20:42:40.607Z,4.8
2018-06-03T20:48:35.609Z,3.64
2018-06-03T20:54:30.535Z,3.63
2018-06-03T21:00:25.549Z,3.62
2018-06-03T21:06:20.596Z,3.48
2018-06-03T21:12:15.550Z,3.4
2018-06-03T21:18:10.575Z,4.03
2018-06-03T21:24:05.558Z,3.35
2018-06-03T21:30:00.551Z,4.89
2018-06-03T21:35:55.592Z,4.12
2018-06-03T21:41:50.574Z,3.83
2018-06-03T21:47:45.610Z,3.56
2018-06-03T21:53:40.606Z,3.37
2018-06-03T21:59:35.595Z,3.95
2018-06-03T22:05:30.629Z,4.76
2018-06-03T22:11:25.563Z,4.9
2018-06-03T22:17:20.602Z,4.61
2018-06-03T22:23:15.612Z,5.15
2018-06-03T22:29:10.608Z,5.17
2018-06-03T22:35:05.599Z,4.05
2018-06-03T22:41:00.621Z,4.16
2018-06-03T22:46:55.599Z,3.99
2018-06-03T22:52:50.614Z,4.69
2018-06-03T22:58:45.665Z,3.83
2018-06-03T23:04:40.660Z,5.21
2018-06-03T23:10:35.642Z,3.97
2018-06-03T23:16:30.671Z,5.08
2018-06-03T23:22:25.719Z,5.67
2018-06-03T23:28:20.707Z,4.73
2018-06-03T23:34:15.632Z,5.25
2018-06-03T23:40:10.620Z,4.68
2018-06-03T23:46:05.671Z,3.71
2018-06-03T23:52:00.671Z,4.49
2018-06-03T23:57:55.692Z,4.13
